Date,TemperatureHighF,TemperatureAvgF,TemperatureLowF,DewpointHighF,DewpointAvgF,DewpointLowF,HumidityHigh,HumidityAvg,HumidityLow,PressureMaxIn,PressureMinIn,WindSpeedMaxMPH,WindSpeedAvgMPH,GustSpeedMaxMPH,PrecipitationSumIn
2013-1-1,14,4,-7,11,-2,-11,89,76,50,30.25,30.07,13,6,13,0.00
2013-1-2,16,13,9,14,9,5,92,83,68,30.07,29.97,17,6,19,0.00
2013-1-3,19,14,6,18,12,4,95,92,85,30.17,30.05,16,6,16,0.00
2013-1-4,32,21,8,17,14,6,92,75,52,30.16,30.00,18,7,20,0.00
2013-1-5,28,17,9,18,13,7,93,83,63,30.14,29.86,17,6,17,0.00
2013-1-6,27,19,11,18,12,7,90,77,54,30.21,29.94,14,6,15,0.00
2013-1-7,36,26,11,25,20,6,93,77,64,30.12,29.91,25,13,27,0.00
2013-1-8,38,28,17,31,24,16,98,87,67,30.01,29.80,21,8,28,0.00
2013-1-9,37,31,22,28,22,18,87,72,50,30.37,29.89,25,11,31,0.00
2013-1-10,40,30,21,33,22,16,99,75,37,30.39,29.80,19,10,20,0.00
2013-1-11,41,37,33,41,37,33,99,99,99,29.82,29.44,17,11,19,0.00
2013-1-12,42,20,7,42,15,1,99,80,66,30.05,29.44,32,14,34,0.00
2013-1-13,12,6,2,5,1,-2,85,79,68,30.22,29.99,15,6,19,0.00
2013-1-14,12,6,-1,6,2,-4,88,82,73,30.37,30.21,14,6,19,0.00
2013-1-15,30,18,3,18,11,0,92,75,54,30.32,29.88,26,12,26,0.00
2013-1-16,34,25,12,30,18,0,97,74,46,30.18,29.66,30,12,31,0.00
2013-1-17,18,11,7,7,1,-4,84,63,45,30.37,30.18,11,5,17,0.00
2013-1-18,41,26,8,31,20,4,92,81,62,30.32,29.74,22,10,24,0.00
2013-1-19,41,25,2,32,20,-6,97,80,55,30.11,29.67,42,11,42,0.00
2013-1-20,8,2,-4,-3,-6,-9,79,69,48,30.33,30.10,18,8,19,0.00
2013-1-21,-1,-9,-12,-6,-17,-21,77,65,49,30.27,30.18,17,8,23,0.00
2013-1-22,0,-8,-16,-9,-16,-22,75,67,52,30.35,30.22,11,5,17,0.00
2013-1-23,17,3,-8,8,-5,-18,85,68,48,30.54,30.09,24,8,26,0.00
2013-1-24,9,-2,-11,2,-10,-18,73,66,61,30.63,30.22,18,6,20,0.00
2013-1-25,19,12,6,14,7,1,92,80,59,30.25,29.92,21,8,21,0.00
2013-1-26,21,11,-2,11,3,-5,86,70,52,30.36,30.17,20,7,24,0.00
2013-1-27,29,25,20,29,20,10,99,81,60,30.19,29.83,18,8,19,0.00
2013-1-28,32,30,29,32,30,28,99,99,99,29.94,29.68,0,0,0,0.00
2013-1-29,34,32,28,33,31,23,99,96,82,29.70,29.53,16,4,20,0.00
2013-1-30,28,18,9,23,13,3,87,80,72,29.68,29.56,23,11,23,0.00
2013-1-31,9,3,-7,5,-4,-14,84,73,59,30.17,29.68,18,10,25,0.00
2013-2-1,0,-6,-15,-4,-14,-21,81,65,48,30.27,30.06,14,6,18,0.00
2013-2-2,14,5,-2,2,-3,-6,85,72,46,30.15,29.96,8,4,9,0.00
2013-2-3,18,10,4,4,2,-1,87,71,47,30.02,29.93,14,5,20,0.00
2013-2-4,18,9,1,5,-1,-8,85,63,39,30.05,29.83,12,4,13,0.00
2013-2-5,27,18,9,22,13,1,96,81,58,30.07,29.65,15,7,18,0.00
2013-2-6,24,15,3,22,12,0,92,88,78,30.14,29.99,15,5,15,0.00
2013-2-7,25,24,23,24,22,20,99,93,88,30.24,30.02,15,7,17,0.00
2013-2-8,28,19,10,20,11,6,90,71,47,30.39,30.24,14,4,14,0.00
2013-2-9,28,23,12,26,20,6,96,88,75,30.29,29.99,24,13,25,0.00
2013-2-10,35,30,25,34,29,23,99,97,91,30.00,29.28,20,6,20,0.07
2013-2-11,33,27,14,32,24,10,99,91,80,30.01,29.28,22,9,22,0.01
2013-2-12,34,24,14,25,18,12,91,81,63,30.03,29.80,22,9,22,0.00
2013-2-13,36,28,20,30,23,18,99,83,66,29.81,29.59,13,5,13,0.00
2013-2-14,35,26,13,30,20,1,99,79,52,30.11,29.59,15,6,17,0.00
2013-2-15,20,12,6,4,1,-1,74,61,45,30.24,30.11,15,6,18,0.00
2013-2-16,20,9,0,4,-1,-4,82,66,43,30.20,30.14,8,4,8,0.00
2013-2-17,29,14,-3,15,5,-7,85,69,50,30.15,29.75,21,11,23,0.00
2013-2-18,37,25,14,30,20,10,92,82,68,29.76,29.52,23,9,24,0.00
2013-2-19,14,7,1,10,-4,-8,82,62,45,30.27,29.67,21,11,25,0.00
2013-2-20,23,9,-4,7,0,-10,81,66,47,30.41,30.27,13,5,15,0.00
2013-2-21,22,13,3,14,5,-2,84,68,49,30.45,30.11,12,5,15,0.00
2013-2-22,30,24,20,25,21,14,96,91,75,30.11,29.83,15,5,17,0.00
2013-2-23,33,25,21,26,22,20,99,89,71,29.95,29.82,11,5,13,0.00
2013-2-24,38,28,18,24,20,16,95,74,49,30.11,29.94,11,4,11,0.00
2013-2-25,33,28,24,27,24,20,89,84,76,30.12,30.04,9,3,9,0.00
2013-2-26,39,32,27,27,25,23,88,76,55,30.07,29.85,20,8,21,0.00
2013-2-27,36,31,29,28,25,22,86,78,67,29.98,29.82,19,11,24,0.00
2013-2-28,31,27,22,26,20,14,85,74,63,30.22,29.97,19,10,21,0.00
2013-3-1,32,23,14,16,12,10,82,64,41,30.32,30.21,14,7,20,0.00
2013-3-2,32,19,6,14,8,4,90,65,34,30.33,30.17,8,4,9,0.00
2013-3-3,34,21,8,10,2,-9,70,45,27,30.17,30.04,9,4,9,0.00
2013-3-4,29,23,16,20,9,-8,86,57,31,30.08,30.00,17,7,18,0.00
2013-3-5,28,24,21,24,21,19,95,91,84,30.23,30.01,13,6,14,0.00
2013-3-6,34,23,13,20,16,10,92,74,47,30.36,30.22,11,6,11,0.01
2013-3-7,36,23,9,16,13,7,92,67,41,30.40,30.33,10,4,11,0.00
2013-3-8,41,29,15,28,21,12,93,72,56,30.37,30.16,18,10,21,0.00
2013-3-9,37,33,30,37,32,24,99,95,75,30.16,29.75,23,10,24,0.00
2013-3-10,36,33,28,35,31,28,99,93,79,29.93,29.77,23,10,24,0.00
2013-3-11,30,27,25,29,26,22,99,95,88,29.83,29.69,17,9,19,0.00
2013-3-12,36,24,18,24,17,9,95,76,42,30.11,29.79,24,8,24,0.00
2013-3-13,37,23,11,14,7,1,78,53,21,30.32,30.11,16,7,17,0.00
2013-3-14,38,26,17,27,20,11,95,80,65,30.27,30.02,12,6,14,0.00
2013-3-15,37,30,24,31,26,-25,99,86,10,30.03,29.85,12,5,15,0.00
2013-3-16,34,21,12,24,14,-27,99,77,10,30.19,29.87,17,7,17,0.00
2013-3-17,32,16,4,13,4,-4,74,60,37,30.25,29.95,19,8,24,0.00
2013-3-18,28,20,14,26,17,9,98,87,73,29.96,29.59,27,14,30,0.00
2013-3-19,28,16,6,10,3,-4,83,59,36,30.08,29.70,27,15,29,0.00
2013-3-20,26,12,1,3,-2,-8,70,54,36,30.11,30.06,17,8,21,0.00
2013-3-21,34,16,-1,9,4,-4,84,61,33,30.10,30.02,10,4,10,0.00
2013-3-22,43,24,8,15,9,3,80,55,26,30.08,30.02,11,5,13,0.00
2013-3-23,45,29,15,22,18,11,88,64,37,30.15,30.05,9,4,9,0.00
2013-3-24,35,29,23,30,21,18,83,73,59,30.11,29.94,17,7,17,0.00
2013-3-25,41,28,18,24,18,15,87,69,40,30.19,29.99,17,8,23,0.00
2013-3-26,43,33,25,24,20,18,79,61,38,30.28,30.19,11,4,11,0.00
2013-3-27,50,36,29,21,17,11,71,47,21,30.33,30.28,10,4,10,0.00
2013-3-28,48,36,23,21,16,13,74,46,25,30.35,30.28,14,4,15,0.00
2013-3-29,45,38,28,26,21,15,60,50,35,30.31,30.14,11,6,12,0.00
2013-3-30,43,39,36,43,35,25,99,88,59,30.14,29.84,23,9,24,0.01
2013-3-31,41,34,25,37,25,12,97,73,33,30.02,29.77,18,9,22,0.00
2013-4-1,35,26,16,14,12,8,76,55,36,30.20,30.02,18,9,22,0.00
2013-4-2,38,27,15,17,12,9,76,55,33,30.34,30.20,14,6,14,0.00
2013-4-3,41,31,18,24,15,7,74,53,26,30.43,30.13,26,10,26,0.00
2013-4-4,52,42,34,34,25,18,67,53,33,30.15,30.01,27,10,27,0.00
2013-4-5,43,34,25,32,19,8,99,56,30,30.26,30.01,14,6,17,0.00
2013-4-6,47,37,32,36,31,24,99,80,49,30.02,29.54,31,12,31,0.01
2013-4-7,45,37,34,35,33,32,99,87,64,29.97,29.72,14,5,16,0.00
2013-4-8,42,38,35,40,37,34,99,95,87,30.05,29.77,8,3,11,0.00
2013-4-9,40,36,32,38,34,24,99,90,61,30.17,30.00,17,8,21,0.00
2013-4-10,48,35,27,35,26,16,99,71,45,30.19,29.94,19,8,25,0.00
2013-4-11,38,33,28,34,28,16,99,82,45,29.95,29.71,26,11,29,0.00
2013-4-12,40,32,27,32,28,26,99,87,63,29.82,29.65,10,6,13,0.00
2013-4-13,45,32,21,35,25,13,97,75,50,30.00,29.81,13,5,19,0.00
2013-4-14,41,30,24,34,28,20,99,90,76,30.00,29.60,23,5,23,0.00
2013-4-15,47,37,27,44,32,22,99,83,61,30.25,29.62,34,12,36,0.00
2013-4-16,53,39,28,39,28,21,81,65,43,30.63,30.24,18,6,18,0.00
2013-4-17,93,36,32,32,28,19,76,72,68,30.63,30.40,17,5,20,0.00
2013-4-30,80,71,58,58,40,20,62,34,21,29.86,29.45,34,12,38,0.00
2013-5-1,58,42,32,42,36,26,99,83,29,30.36,29.86,15,8,17,0.01
2013-5-2,34,32,30,33,31,29,99,99,99,30.38,30.30,13,8,19,0.00
2013-5-3,35,32,30,32,31,29,99,97,89,30.29,30.03,16,7,17,0.00
2013-5-4,57,40,32,40,36,32,99,86,53,30.07,30.00,11,5,12,0.00
2013-5-5,65,49,34,46,39,34,98,72,48,30.07,29.98,9,6,11,0.00
2013-5-6,77,60,40,45,36,21,88,49,13,30.04,29.94,12,4,14,0.00
2013-5-7,81,68,51,43,34,20,65,32,10,30.01,29.90,14,5,17,0.00
2013-5-8,82,69,55,46,39,26,54,35,14,29.95,29.87,13,4,17,0.00
2013-5-9,64,52,38,50,46,38,99,81,54,29.99,29.89,15,7,21,0.01
2013-5-10,136,57,-6,100,28,-40,95,44,10,30.01,29.82,18,7,18,0.00
2013-5-11,62,48,34,44,33,18,74,58,25,29.91,29.78,16,10,21,0.00
2013-5-12,57,51,44,16,6,-3,32,17,10,30.08,29.99,18,8,19,0.00
2013-5-13,63,50,33,36,23,9,54,36,12,30.07,29.67,21,10,26,0.00
2013-5-14,90,71,51,56,38,16,69,38,10,29.73,29.41,28,9,31,0.00
2013-5-15,79,68,56,45,40,29,65,39,18,29.84,29.55,21,8,21,0.00
2013-5-16,85,71,57,48,32,14,63,30,10,29.89,29.77,13,6,19,0.00
2013-5-17,64,56,50,54,46,26,99,73,23,29.99,29.89,21,10,21,0.01
2013-5-18,78,62,51,64,56,50,99,82,53,29.97,29.79,20,8,23,0.00
2013-5-19,86,69,61,66,62,59,99,79,41,29.81,29.57,24,9,26,0.22
2013-5-20,75,66,61,63,59,55,99,81,53,29.61,29.49,30,11,36,0.40
2013-5-21,68,60,53,64,59,53,99,94,69,29.64,29.50,12,3,20,0.73
2013-5-22,57,52,47,54,50,47,99,94,81,29.89,29.62,13,6,19,0.09
2013-5-23,62,51,40,47,31,18,89,52,20,30.27,29.89,18,9,20,0.00
2013-5-24,69,54,37,39,32,26,76,46,20,30.35,30.19,14,6,19,0.00
2013-5-25,61,56,50,49,44,37,93,67,46,30.25,30.19,17,7,20,0.00
2013-5-26,66,57,47,45,38,26,78,51,22,30.21,30.04,21,8,24,0.00
2013-5-27,61,56,51,55,48,41,99,76,58,30.04,29.82,14,8,21,0.14
2013-5-28,58,50,14,58,50,14,99,99,99,29.81,29.68,8,3,14,0.07
2013-6-10,74,70,64,59,58,56,83,65,52,30.02,29.99,8,4,8,0.00
2013-6-11,78,68,59,66,62,57,97,82,58,30.07,30.00,11,3,15,0.00
2013-6-12,69,65,61,67,63,60,99,95,87,30.10,29.93,10,3,14,0.28
2013-6-13,76,66,56,62,51,45,99,61,37,30.27,30.03,14,5,14,0.00
2013-6-14,81,66,50,78,52,46,92,65,39,30.30,30.00,18,8,21,0.12
2013-6-15,134,50,-33,100,47,-33,99,91,83,30.03,29.92,16,7,17,0.30
2013-6-16,86,34,-18,63,24,-43,98,74,25,29.96,29.91,16,5,18,0.12
2013-6-17,80,69,57,58,52,45,78,55,36,30.05,29.91,13,5,14,0.00
2013-6-18,74,64,55,53,47,33,86,59,22,30.16,30.05,10,4,13,0.00
2013-6-19,80,68,54,58,53,47,77,61,46,30.17,30.05,15,8,19,0.00
2013-6-20,82,72,61,67,60,56,93,69,49,30.12,30.00,26,10,26,0.04
2013-6-21,76,69,63,67,64,59,99,86,65,30.15,29.78,25,7,53,1.35
2013-6-22,79,69,63,70,66,62,99,91,69,30.06,29.91,14,5,15,0.48
2013-6-23,82,73,65,69,65,61,98,78,52,29.95,29.81,28,13,32,0.00
2013-6-24,81,72,65,71,66,62,98,83,66,29.98,29.89,21,7,24,0.00
2013-6-25,83,73,63,69,66,62,97,78,56,29.92,29.80,15,6,21,0.00
2013-6-26,83,72,-8,80,69,-9,99,93,77,29.84,29.75,16,4,36,0.64
2013-6-27,70,47,-40,69,46,-40,97,96,88,29.86,29.83,0,0,0,0.00
2013-7-9,83,78,72,74,69,66,98,74,60,30.05,29.99,24,10,28,0.01
2013-7-10,77,70,62,66,55,49,85,61,39,30.22,30.05,13,6,21,0.00
2013-7-11,83,71,58,61,56,52,93,62,37,30.32,30.20,11,4,14,0.00
2013-7-12,84,72,62,63,59,57,83,64,45,30.29,30.17,24,12,30,0.04
2013-7-13,77,70,62,64,60,57,93,74,57,30.30,30.18,19,10,22,0.07
2013-7-14,85,75,66,66,63,61,87,68,48,30.40,30.30,17,7,18,0.00
2013-7-15,87,77,66,68,65,62,91,68,44,30.46,30.37,13,5,16,0.00
2013-7-16,91,81,72,73,69,65,92,68,46,30.42,30.37,18,7,19,0.00
2013-7-17,90,82,74,72,68,64,87,64,43,30.45,30.31,13,6,20,0.00
2013-7-18,92,83,73,72,68,64,87,62,42,30.31,29.98,27,11,33,0.00
2013-7-19,85,79,70,73,62,48,82,58,33,30.05,29.91,20,8,31,0.00
2013-7-20,79,71,63,61,56,45,86,60,39,30.18,30.04,8,4,12,0.00
2013-7-21,73,64,55,65,58,45,96,82,52,30.20,30.06,11,5,17,0.35
2013-7-22,84,70,60,74,64,54,99,81,54,30.08,29.86,17,9,21,0.00
2013-7-23,73,64,56,54,51,47,88,65,44,30.23,30.01,11,4,14,0.00
2013-7-24,73,63,53,54,51,45,82,64,44,30.30,30.20,8,3,12,0.00
2013-7-25,80,68,57,67,60,52,94,78,55,30.20,30.11,15,8,16,0.18
2013-7-26,71,63,52,65,57,47,99,81,56,30.23,30.07,17,6,19,0.01
2013-7-27,58,52,46,51,47,44,95,83,64,30.22,30.08,14,6,21,0.05
2013-7-28,67,57,48,54,51,46,98,81,60,30.25,30.10,14,4,14,0.01
2013-7-29,76,64,50,58,53,49,97,71,44,30.34,30.25,11,3,12,0.00
2013-7-30,72,66,61,64,59,54,95,80,67,30.34,30.25,13,4,17,0.00
2013-7-31,78,68,62,66,60,50,99,77,45,30.27,30.15,17,5,22,0.00
2013-8-1,78,67,55,55,52,46,85,59,32,30.23,30.07,15,5,21,0.00
2013-8-2,76,68,57,59,52,46,90,60,35,30.22,30.04,12,4,14,0.00
2013-8-3,76,65,52,56,48,41,92,59,29,30.38,30.22,10,3,17,0.00
2013-8-4,76,64,52,55,51,46,91,65,36,30.45,30.25,11,4,14,0.00
2013-8-5,72,64,56,65,60,52,97,87,77,30.25,30.05,17,6,17,0.21
2013-8-6,80,71,60,67,63,57,96,75,49,30.05,29.86,22,6,22,0.12
2013-8-7,74,65,58,62,55,47,99,73,40,30.20,29.93,9,4,11,0.00
2013-8-8,77,65,53,57,52,48,93,68,37,30.25,30.16,12,4,17,0.00
2013-8-9,76,66,57,60,52,45,96,64,34,30.27,30.16,13,4,15,0.00
2013-8-10,73,65,59,55,52,48,81,63,42,30.35,30.27,8,2,10,0.00
2013-8-11,76,66,57,62,57,51,91,74,56,30.30,30.17,8,2,8,0.00
2013-8-12,79,67,58,65,56,48,98,73,37,30.24,30.14,11,4,22,0.01
2013-8-13,72,62,50,52,47,40,94,62,32,30.35,30.24,11,3,13,0.00
2013-8-14,77,63,52,51,47,40,82,58,28,30.38,30.27,9,3,11,0.00
2013-8-15,79,67,56,53,48,38,79,54,24,30.32,30.25,11,4,15,0.00
2013-8-16,82,70,56,58,52,47,83,55,31,30.37,30.30,9,4,13,0.01
2013-8-17,82,70,56,60,52,45,92,57,28,30.40,30.30,20,6,22,0.00
2013-8-18,82,70,56,59,54,47,90,60,30,30.36,30.22,24,8,24,0.00
2013-8-19,84,71,61,65,60,56,85,71,48,30.24,30.12,21,9,21,0.00
2013-8-20,89,76,63,69,66,61,92,72,45,30.15,30.07,25,10,27,0.00
2013-8-21,91,75,67,88,68,66,98,82,62,30.14,30.00,7,1,12,0.68
2013-8-22,82,71,61,68,56,47,99,65,31,30.25,30.14,10,4,12,0.01
2013-8-23,85,70,55,64,57,47,88,65,39,30.30,30.19,14,6,17,0.00
2013-8-24,84,72,60,71,65,59,98,79,60,30.29,30.13,27,12,27,0.22
2013-8-25,92,82,74,74,71,69,86,72,52,30.18,30.08,25,14,31,0.00
2013-8-26,91,82,75,75,73,70,89,73,54,30.17,30.00,22,9,22,0.05
2013-8-27,97,81,63,88,73,54,89,77,53,30.13,29.93,14,6,15,0.00
2013-8-28,86,76,69,72,70,68,99,84,58,30.18,30.06,11,3,11,0.00
2013-8-29,89,78,69,75,71,68,98,79,58,30.19,30.03,16,7,18,0.00
2013-8-30,82,76,66,73,66,60,97,75,51,30.05,29.96,16,5,23,0.01
2013-8-31,84,72,60,67,63,59,97,77,51,30.05,29.89,11,5,14,0.00
2013-9-1,76,70,60,67,61,53,91,74,53,30.08,29.88,14,6,16,0.00
2013-9-2,68,60,52,53,50,46,86,70,47,30.22,30.07,8,4,11,0.01
2013-9-3,74,61,47,55,51,46,96,70,43,30.26,30.14,11,4,12,0.00
2013-9-4,82,68,59,63,57,51,86,68,47,30.31,30.17,8,3,9,0.00
2013-9-5,78,64,51,61,53,42,96,70,36,30.42,30.29,8,2,11,0.00
2013-9-6,86,67,47,79,60,45,97,79,42,30.30,30.12,12,4,17,0.11